の過去48時間の天気

Arhangel'Sk

現在時刻: 9/23 02:20 MSK (9/22 23:20 UTC) 以下の時間は現地時間です。

過去48時間のMETAR気象情報
時間 風向 風速(m/s) 視程 気温(℃) 湿度(%) 気圧(hPa) 天気現象
23 02:00 東南東 2 10km以上 -1 93 1023
23 01:30 東南東 2 10km以上 -1 93 1023
23 01:00 東南東 2 10km以上 -1 93 1023
23 00:30 東南東 2 10km以上 -1 93 1024
23 00:00 静穏 0 10km以上 -1 93 1024
22 23:30 東南東 2 10km以上 -1 93 1024
22 23:00 2 10km以上 0 93 1024
22 22:30 2 10km以上 0 93 1024
ULAA 222300Z 11002MPS CAVOK M01/M02 Q1023 R08/CLRD70 NOSIG RMK QFE766/1022
ULAA 222230Z 11002MPS CAVOK M01/M02 Q1023 R08/CLRD70 NOSIG RMK QFE766/1022
ULAA 222200Z 11002MPS CAVOK M01/M02 Q1023 R08/CLRD70 NOSIG RMK QFE767/1022
ULAA 222130Z 11002MPS CAVOK M01/M02 Q1024 R08/CLRD70 NOSIG RMK QFE767/1022
ULAA 222100Z 00000MPS CAVOK M01/M02 Q1024 R08/CLRD70 NOSIG RMK QFE767/1022
ULAA 222030Z 12002MPS CAVOK M01/M02 Q1024 R08/CLRD70 NOSIG RMK QFE767/1023
ULAA 222000Z 09002MPS CAVOK 00/M01 Q1024 R08/CLRD70 NOSIG RMK QFE767/1023
ULAA 221930Z 10002MPS CAVOK M00/M01 Q1024 R08/CLRD70 NOSIG RMK QFE767/1023